<?xml version="1.0" encoding="UTF-8" standalone="no" ?>
<gpx xmlns="http://www.topografix.com/GPX/1/1" xmlns:xsi="http://www.w3.org/2001/XMLSchema-instance" xsi:schemaLocation="http://www.topografix.com/GPX/1/1 http://www.topografix.com/GPX/1/1/gpx.xsd" version="1.1" creator="VisuGPX - https://www.visugpx.com">
  <metadata>
    <name>2024 05 22 Parcours Total 2024</name>
  </metadata>
  <trk>
    <name><![CDATA[VTT9]]></name>
    <extensions>
      <line xmlns="http://www.topografix.com/GPX/gpx_style/0/2">
        <color>0000ff</color>
        <width>5</width>
      </line>
    </extensions>
    <trkseg>
      <trkpt lat="48.15002" lon="3.32549">
        <ele>108.9</ele>
        <time>2024-01-20T12:00:51Z</time>
      </trkpt>
      <trkpt lat="48.15003" lon="3.32548">
        <ele>109</ele>
        <time>2024-01-20T12:00:39Z</time>
      </trkpt>
      <trkpt lat="48.15013" lon="3.3254">
        <ele>110.2</ele>
        <time>2024-01-20T12:00:34Z</time>
      </trkpt>
      <trkpt lat="48.15024" lon="3.32526">
        <ele>111.2</ele>
        <time>2024-01-20T12:00:29Z</time>
      </trkpt>
      <trkpt lat="48.15037" lon="3.32497">
        <ele>113.4</ele>
        <time>2024-01-20T12:00:22Z</time>
      </trkpt>
      <trkpt lat="48.15045" lon="3.32479">
        <ele>114.4</ele>
        <time>2024-01-20T12:00:16Z</time>
      </trkpt>
      <trkpt lat="48.15046" lon="3.32477">
        <ele>114.6</ele>
        <time>2024-01-20T12:00:14Z</time>
      </trkpt>
      <trkpt lat="48.15048" lon="3.32475">
        <ele>115</ele>
        <time>2024-01-20T12:00:13Z</time>
      </trkpt>
      <trkpt lat="48.15056" lon="3.32471">
        <ele>117.1</ele>
        <time>2024-01-20T12:00:10Z</time>
      </trkpt>
      <trkpt lat="48.15066" lon="3.32466">
        <ele>119.9</ele>
        <time>2024-01-20T12:00:07Z</time>
      </trkpt>
      <trkpt lat="48.15069" lon="3.32464">
        <ele>120.6</ele>
        <time>2024-01-20T12:00:01Z</time>
      </trkpt>
      <trkpt lat="48.15073" lon="3.32461">
        <ele>121.6</ele>
        <time>2024-01-20T11:59:55Z</time>
      </trkpt>
      <trkpt lat="48.15081" lon="3.32453">
        <ele>123.2</ele>
        <time>2024-01-20T11:59:49Z</time>
      </trkpt>
      <trkpt lat="48.15097" lon="3.32449">
        <ele>127.4</ele>
        <time>2024-01-20T11:59:43Z</time>
      </trkpt>
      <trkpt lat="48.15105" lon="3.32445">
        <ele>129.3</ele>
        <time>2024-01-20T11:59:39Z</time>
      </trkpt>
      <trkpt lat="48.15113" lon="3.32438">
        <ele>130.5</ele>
        <time>2024-01-20T11:59:33Z</time>
      </trkpt>
      <trkpt lat="48.15124" lon="3.32423">
        <ele>131.2</ele>
        <time>2024-01-20T11:59:28Z</time>
      </trkpt>
      <trkpt lat="48.15134" lon="3.32421">
        <ele>133.4</ele>
        <time>2024-01-20T11:59:24Z</time>
      </trkpt>
      <trkpt lat="48.15139" lon="3.32416">
        <ele>133.9</ele>
        <time>2024-01-20T11:59:17Z</time>
      </trkpt>
      <trkpt lat="48.15154" lon="3.32425">
        <ele>139.4</ele>
        <time>2024-01-20T11:59:09Z</time>
      </trkpt>
      <trkpt lat="48.15166" lon="3.32423">
        <ele>142.5</ele>
        <time>2024-01-20T11:59:04Z</time>
      </trkpt>
      <trkpt lat="48.15185" lon="3.32415">
        <ele>145.8</ele>
        <time>2024-01-20T11:58:59Z</time>
      </trkpt>
      <trkpt lat="48.15196" lon="3.32414">
        <ele>148</ele>
        <time>2024-01-20T11:58:56Z</time>
      </trkpt>
      <trkpt lat="48.15211" lon="3.32407">
        <ele>150.1</ele>
        <time>2024-01-20T11:58:51Z</time>
      </trkpt>
      <trkpt lat="48.15234" lon="3.32415">
        <ele>154.6</ele>
        <time>2024-01-20T11:58:47Z</time>
      </trkpt>
      <trkpt lat="48.15249" lon="3.32417">
        <ele>156.9</ele>
        <time>2024-01-20T11:58:42Z</time>
      </trkpt>
      <trkpt lat="48.15255" lon="3.32416">
        <ele>157.5</ele>
        <time>2024-01-20T11:58:40Z</time>
      </trkpt>
      <trkpt lat="48.15268" lon="3.32418">
        <ele>159.1</ele>
        <time>2024-01-20T11:58:36Z</time>
      </trkpt>
      <trkpt lat="48.15274" lon="3.3242">
        <ele>160</ele>
        <time>2024-01-20T11:58:34Z</time>
      </trkpt>
      <trkpt lat="48.15279" lon="3.32425">
        <ele>161</ele>
        <time>2024-01-20T11:58:32Z</time>
      </trkpt>
      <trkpt lat="48.15282" lon="3.32428">
        <ele>161.5</ele>
        <time>2024-01-20T11:58:31Z</time>
      </trkpt>
      <trkpt lat="48.15292" lon="3.32445">
        <ele>163.6</ele>
        <time>2024-01-20T11:58:26Z</time>
      </trkpt>
      <trkpt lat="48.15294" lon="3.3245">
        <ele>164</ele>
        <time>2024-01-20T11:58:24Z</time>
      </trkpt>
      <trkpt lat="48.15299" lon="3.32458">
        <ele>164.7</ele>
        <time>2024-01-20T11:58:21Z</time>
      </trkpt>
      <trkpt lat="48.15306" lon="3.32465">
        <ele>165.5</ele>
        <time>2024-01-20T11:58:17Z</time>
      </trkpt>
      <trkpt lat="48.15313" lon="3.32466">
        <ele>165.3</ele>
        <time>2024-01-20T11:58:14Z</time>
      </trkpt>
      <trkpt lat="48.15316" lon="3.32479">
        <ele>166.2</ele>
        <time>2024-01-20T11:58:08Z</time>
      </trkpt>
      <trkpt lat="48.15327" lon="3.32498">
        <ele>167.8</ele>
        <time>2024-01-20T11:58:03Z</time>
      </trkpt>
      <trkpt lat="48.15335" lon="3.32511">
        <ele>168.4</ele>
        <time>2024-01-20T11:58:00Z</time>
      </trkpt>
      <trkpt lat="48.15354" lon="3.32539">
        <ele>169.5</ele>
        <time>2024-01-20T11:57:53Z</time>
      </trkpt>
      <trkpt lat="48.15369" lon="3.32555">
        <ele>169.7</ele>
        <time>2024-01-20T11:57:49Z</time>
      </trkpt>
      <trkpt lat="48.15381" lon="3.32571">
        <ele>170.4</ele>
        <time>2024-01-20T11:57:45Z</time>
      </trkpt>
      <trkpt lat="48.15394" lon="3.32585">
        <ele>170.7</ele>
        <time>2024-01-20T11:57:41Z</time>
      </trkpt>
      <trkpt lat="48.15397" lon="3.32589">
        <ele>170.7</ele>
        <time>2024-01-20T11:57:40Z</time>
      </trkpt>
      <trkpt lat="48.15416" lon="3.3261">
        <ele>170.9</ele>
        <time>2024-01-20T11:57:34Z</time>
      </trkpt>
      <trkpt lat="48.15435" lon="3.32632">
        <ele>171.1</ele>
        <time>2024-01-20T11:57:27Z</time>
      </trkpt>
      <trkpt lat="48.15454" lon="3.32656">
        <ele>170.5</ele>
        <time>2024-01-20T11:57:20Z</time>
      </trkpt>
      <trkpt lat="48.15467" lon="3.32671">
        <ele>170.2</ele>
        <time>2024-01-20T11:57:15Z</time>
      </trkpt>
      <trkpt lat="48.15478" lon="3.32694">
        <ele>169.8</ele>
        <time>2024-01-20T11:57:09Z</time>
      </trkpt>
      <trkpt lat="48.15497" lon="3.32717">
        <ele>169.2</ele>
        <time>2024-01-20T11:57:02Z</time>
      </trkpt>
      <trkpt lat="48.15514" lon="3.32727">
        <ele>168.7</ele>
        <time>2024-01-20T11:56:58Z</time>
      </trkpt>
      <trkpt lat="48.15532" lon="3.32748">
        <ele>168.8</ele>
        <time>2024-01-20T11:56:52Z</time>
      </trkpt>
      <trkpt lat="48.15552" lon="3.32769">
        <ele>168.8</ele>
        <time>2024-01-20T11:56:46Z</time>
      </trkpt>
      <trkpt lat="48.15577" lon="3.32797">
        <ele>168.1</ele>
        <time>2024-01-20T11:56:39Z</time>
      </trkpt>
      <trkpt lat="48.15592" lon="3.32818">
        <ele>168.1</ele>
        <time>2024-01-20T11:56:34Z</time>
      </trkpt>
      <trkpt lat="48.15613" lon="3.32844">
        <ele>168.7</ele>
        <time>2024-01-20T11:56:27Z</time>
      </trkpt>
      <trkpt lat="48.15633" lon="3.32871">
        <ele>169.5</ele>
        <time>2024-01-20T11:56:20Z</time>
      </trkpt>
      <trkpt lat="48.15647" lon="3.3289">
        <ele>169.7</ele>
        <time>2024-01-20T11:56:14Z</time>
      </trkpt>
      <trkpt lat="48.15664" lon="3.32913">
        <ele>170</ele>
        <time>2024-01-20T11:56:07Z</time>
      </trkpt>
      <trkpt lat="48.15685" lon="3.32938">
        <ele>170.1</ele>
        <time>2024-01-20T11:56:00Z</time>
      </trkpt>
      <trkpt lat="48.15702" lon="3.32958">
        <ele>170.2</ele>
        <time>2024-01-20T11:55:53Z</time>
      </trkpt>
      <trkpt lat="48.15714" lon="3.32974">
        <ele>170.3</ele>
        <time>2024-01-20T11:55:47Z</time>
      </trkpt>
      <trkpt lat="48.1572" lon="3.32981">
        <ele>170.1</ele>
        <time>2024-01-20T11:55:40Z</time>
      </trkpt>
      <trkpt lat="48.15721" lon="3.32979">
        <ele>170</ele>
        <time>2024-01-20T11:55:28Z</time>
      </trkpt>
      <trkpt lat="48.15723" lon="3.32982">
        <ele>170</ele>
        <time>2024-01-20T11:55:24Z</time>
      </trkpt>
      <trkpt lat="48.15738" lon="3.32999">
        <ele>170</ele>
        <time>2024-01-20T11:55:16Z</time>
      </trkpt>
      <trkpt lat="48.15744" lon="3.33007">
        <ele>170.1</ele>
        <time>2024-01-20T11:55:11Z</time>
      </trkpt>
      <trkpt lat="48.1575" lon="3.33009">
        <ele>170</ele>
        <time>2024-01-20T11:55:08Z</time>
      </trkpt>
      <trkpt lat="48.15765" lon="3.33011">
        <ele>169.1</ele>
        <time>2024-01-20T11:55:00Z</time>
      </trkpt>
      <trkpt lat="48.15783" lon="3.33004">
        <ele>168</ele>
        <time>2024-01-20T11:54:52Z</time>
      </trkpt>
      <trkpt lat="48.15797" lon="3.32999">
        <ele>167.3</ele>
        <time>2024-01-20T11:54:45Z</time>
      </trkpt>
      <trkpt lat="48.15809" lon="3.32995">
        <ele>166.6</ele>
        <time>2024-01-20T11:54:38Z</time>
      </trkpt>
      <trkpt lat="48.1582" lon="3.32986">
        <ele>165.7</ele>
        <time>2024-01-20T11:54:31Z</time>
      </trkpt>
      <trkpt lat="48.15826" lon="3.32979">
        <ele>165.3</ele>
        <time>2024-01-20T11:54:25Z</time>
      </trkpt>
      <trkpt lat="48.15839" lon="3.32966">
        <ele>164.4</ele>
        <time>2024-01-20T11:54:17Z</time>
      </trkpt>
      <trkpt lat="48.15848" lon="3.32953">
        <ele>163.3</ele>
        <time>2024-01-20T11:54:11Z</time>
      </trkpt>
      <trkpt lat="48.15858" lon="3.32937">
        <ele>162</ele>
        <time>2024-01-20T11:54:03Z</time>
      </trkpt>
      <trkpt lat="48.15863" lon="3.32929">
        <ele>161.3</ele>
        <time>2024-01-20T11:53:59Z</time>
      </trkpt>
      <trkpt lat="48.15864" lon="3.32924">
        <ele>161.1</ele>
        <time>2024-01-20T11:53:56Z</time>
      </trkpt>
      <trkpt lat="48.15871" lon="3.32911">
        <ele>160.4</ele>
        <time>2024-01-20T11:53:49Z</time>
      </trkpt>
      <trkpt lat="48.15881" lon="3.32898">
        <ele>159.1</ele>
        <time>2024-01-20T11:53:41Z</time>
      </trkpt>
      <trkpt lat="48.15892" lon="3.32884">
        <ele>157.6</ele>
        <time>2024-01-20T11:53:32Z</time>
      </trkpt>
      <trkpt lat="48.15898" lon="3.32873">
        <ele>156.8</ele>
        <time>2024-01-20T11:53:25Z</time>
      </trkpt>
      <trkpt lat="48.15904" lon="3.32864">
        <ele>156</ele>
        <time>2024-01-20T11:53:20Z</time>
      </trkpt>
      <trkpt lat="48.15912" lon="3.32852">
        <ele>155</ele>
        <time>2024-01-20T11:53:12Z</time>
      </trkpt>
      <trkpt lat="48.15919" lon="3.3284">
        <ele>154.1</ele>
        <time>2024-01-20T11:53:05Z</time>
      </trkpt>
      <trkpt lat="48.15929" lon="3.32829">
        <ele>152.9</ele>
        <time>2024-01-20T11:52:57Z</time>
      </trkpt>
      <trkpt lat="48.15941" lon="3.32817">
        <ele>151.1</ele>
        <time>2024-01-20T11:52:49Z</time>
      </trkpt>
      <trkpt lat="48.15949" lon="3.32809">
        <ele>150.1</ele>
        <time>2024-01-20T11:52:43Z</time>
      </trkpt>
      <trkpt lat="48.15959" lon="3.32799">
        <ele>149.1</ele>
        <time>2024-01-20T11:52:36Z</time>
      </trkpt>
      <trkpt lat="48.1597" lon="3.32789">
        <ele>147.9</ele>
        <time>2024-01-20T11:52:27Z</time>
      </trkpt>
      <trkpt lat="48.15979" lon="3.32779">
        <ele>146.6</ele>
        <time>2024-01-20T11:52:19Z</time>
      </trkpt>
      <trkpt lat="48.15985" lon="3.32771">
        <ele>145.8</ele>
        <time>2024-01-20T11:52:12Z</time>
      </trkpt>
      <trkpt lat="48.15993" lon="3.32762">
        <ele>144.9</ele>
        <time>2024-01-20T11:52:04Z</time>
      </trkpt>
      <trkpt lat="48.15997" lon="3.32757">
        <ele>144.5</ele>
        <time>2024-01-20T11:52:00Z</time>
      </trkpt>
      <trkpt lat="48.16005" lon="3.32747">
        <ele>143.3</ele>
        <time>2024-01-20T11:51:52Z</time>
      </trkpt>
      <trkpt lat="48.16013" lon="3.32736">
        <ele>141.8</ele>
        <time>2024-01-20T11:51:44Z</time>
      </trkpt>
      <trkpt lat="48.16022" lon="3.32723">
        <ele>140.4</ele>
        <time>2024-01-20T11:51:36Z</time>
      </trkpt>
      <trkpt lat="48.16031" lon="3.32714">
        <ele>139.1</ele>
        <time>2024-01-20T11:51:30Z</time>
      </trkpt>
      <trkpt lat="48.1604" lon="3.32704">
        <ele>137.7</ele>
        <time>2024-01-20T11:51:24Z</time>
      </trkpt>
      <trkpt lat="48.1605" lon="3.32692">
        <ele>136.3</ele>
        <time>2024-01-20T11:51:17Z</time>
      </trkpt>
      <trkpt lat="48.16061" lon="3.32678">
        <ele>135.2</ele>
        <time>2024-01-20T11:51:08Z</time>
      </trkpt>
      <trkpt lat="48.16067" lon="3.32667">
        <ele>134.6</ele>
        <time>2024-01-20T11:51:01Z</time>
      </trkpt>
      <trkpt lat="48.1607" lon="3.32664">
        <ele>134.3</ele>
        <time>2024-01-20T11:50:58Z</time>
      </trkpt>
      <trkpt lat="48.16074" lon="3.32659">
        <ele>134</ele>
        <time>2024-01-20T11:50:54Z</time>
      </trkpt>
      <trkpt lat="48.16083" lon="3.32648">
        <ele>133.3</ele>
        <time>2024-01-20T11:50:46Z</time>
      </trkpt>
      <trkpt lat="48.16092" lon="3.32638">
        <ele>132.6</ele>
        <time>2024-01-20T11:50:40Z</time>
      </trkpt>
      <trkpt lat="48.16101" lon="3.32623">
        <ele>131.6</ele>
        <time>2024-01-20T11:50:33Z</time>
      </trkpt>
      <trkpt lat="48.16112" lon="3.32605">
        <ele>130.7</ele>
        <time>2024-01-20T11:50:26Z</time>
      </trkpt>
      <trkpt lat="48.16122" lon="3.32581">
        <ele>129.4</ele>
        <time>2024-01-20T11:50:18Z</time>
      </trkpt>
      <trkpt lat="48.16131" lon="3.3256">
        <ele>127.6</ele>
        <time>2024-01-20T11:50:11Z</time>
      </trkpt>
      <trkpt lat="48.16138" lon="3.32543">
        <ele>126.6</ele>
        <time>2024-01-20T11:50:05Z</time>
      </trkpt>
      <trkpt lat="48.16146" lon="3.32521">
        <ele>125.3</ele>
        <time>2024-01-20T11:49:58Z</time>
      </trkpt>
      <trkpt lat="48.1616" lon="3.32495">
        <ele>123.1</ele>
        <time>2024-01-20T11:49:50Z</time>
      </trkpt>
      <trkpt lat="48.16177" lon="3.32469">
        <ele>121.9</ele>
        <time>2024-01-20T11:49:42Z</time>
      </trkpt>
      <trkpt lat="48.16194" lon="3.32438">
        <ele>120.8</ele>
        <time>2024-01-20T11:49:34Z</time>
      </trkpt>
      <trkpt lat="48.16219" lon="3.32405">
        <ele>119.1</ele>
        <time>2024-01-20T11:49:25Z</time>
      </trkpt>
      <trkpt lat="48.16238" lon="3.32379">
        <ele>118.8</ele>
        <time>2024-01-20T11:49:18Z</time>
      </trkpt>
      <trkpt lat="48.16265" lon="3.32348">
        <ele>118.3</ele>
        <time>2024-01-20T11:49:09Z</time>
      </trkpt>
      <trkpt lat="48.16284" lon="3.32332">
        <ele>118</ele>
        <time>2024-01-20T11:49:03Z</time>
      </trkpt>
      <trkpt lat="48.16307" lon="3.32312">
        <ele>117.2</ele>
        <time>2024-01-20T11:48:56Z</time>
      </trkpt>
      <trkpt lat="48.16331" lon="3.32293">
        <ele>116.5</ele>
        <time>2024-01-20T11:48:49Z</time>
      </trkpt>
      <trkpt lat="48.16374" lon="3.32264">
        <ele>115.3</ele>
        <time>2024-01-20T11:48:37Z</time>
      </trkpt>
      <trkpt lat="48.16421" lon="3.32248">
        <ele>113.8</ele>
        <time>2024-01-20T11:48:25Z</time>
      </trkpt>
      <trkpt lat="48.1646" lon="3.32241">
        <ele>112.8</ele>
        <time>2024-01-20T11:48:15Z</time>
      </trkpt>
      <trkpt lat="48.16498" lon="3.32213">
        <ele>112.6</ele>
        <time>2024-01-20T11:48:05Z</time>
      </trkpt>
      <trkpt lat="48.16526" lon="3.32183">
        <ele>112.2</ele>
        <time>2024-01-20T11:47:57Z</time>
      </trkpt>
      <trkpt lat="48.16537" lon="3.32172">
        <ele>111.7</ele>
        <time>2024-01-20T11:47:54Z</time>
      </trkpt>
      <trkpt lat="48.1657" lon="3.32136">
        <ele>111.4</ele>
        <time>2024-01-20T11:47:45Z</time>
      </trkpt>
      <trkpt lat="48.1659" lon="3.32097">
        <ele>110.1</ele>
        <time>2024-01-20T11:47:38Z</time>
      </trkpt>
      <trkpt lat="48.16614" lon="3.32062">
        <ele>109.2</ele>
        <time>2024-01-20T11:47:30Z</time>
      </trkpt>
      <trkpt lat="48.16625" lon="3.3206">
        <ele>109.2</ele>
        <time>2024-01-20T11:47:26Z</time>
      </trkpt>
      <trkpt lat="48.16628" lon="3.32064">
        <ele>109.3</ele>
        <time>2024-01-20T11:47:25Z</time>
      </trkpt>
      <trkpt lat="48.16639" lon="3.32079">
        <ele>109.8</ele>
        <time>2024-01-20T11:47:21Z</time>
      </trkpt>
      <trkpt lat="48.16658" lon="3.32087">
        <ele>110.1</ele>
        <time>2024-01-20T11:47:16Z</time>
      </trkpt>
      <trkpt lat="48.16694" lon="3.32089">
        <ele>109.2</ele>
        <time>2024-01-20T11:47:07Z</time>
      </trkpt>
      <trkpt lat="48.16707" lon="3.32088">
        <ele>109.2</ele>
        <time>2024-01-20T11:47:04Z</time>
      </trkpt>
      <trkpt lat="48.16747" lon="3.32084">
        <ele>109</ele>
        <time>2024-01-20T11:46:55Z</time>
      </trkpt>
      <trkpt lat="48.1676" lon="3.32086">
        <ele>109.1</ele>
        <time>2024-01-20T11:46:52Z</time>
      </trkpt>
      <trkpt lat="48.16769" lon="3.32085">
        <ele>109.1</ele>
        <time>2024-01-20T11:46:50Z</time>
      </trkpt>
      <trkpt lat="48.1679" lon="3.32083">
        <ele>109</ele>
        <time>2024-01-20T11:46:45Z</time>
      </trkpt>
      <trkpt lat="48.16799" lon="3.32084">
        <ele>109</ele>
        <time>2024-01-20T11:46:43Z</time>
      </trkpt>
      <trkpt lat="48.16834" lon="3.32085">
        <ele>109.1</ele>
        <time>2024-01-20T11:46:35Z</time>
      </trkpt>
      <trkpt lat="48.16855" lon="3.32087">
        <ele>109.1</ele>
        <time>2024-01-20T11:46:30Z</time>
      </trkpt>
      <trkpt lat="48.1689" lon="3.32092">
        <ele>109.3</ele>
        <time>2024-01-20T11:46:21Z</time>
      </trkpt>
      <trkpt lat="48.16914" lon="3.32087">
        <ele>109.1</ele>
        <time>2024-01-20T11:46:14Z</time>
      </trkpt>
      <trkpt lat="48.16948" lon="3.3206">
        <ele>108.2</ele>
        <time>2024-01-20T11:46:04Z</time>
      </trkpt>
      <trkpt lat="48.16968" lon="3.32051">
        <ele>107.8</ele>
        <time>2024-01-20T11:45:59Z</time>
      </trkpt>
      <trkpt lat="48.16995" lon="3.32054">
        <ele>108</ele>
        <time>2024-01-20T11:45:51Z</time>
      </trkpt>
      <trkpt lat="48.16998" lon="3.32054">
        <ele>108</ele>
        <time>2024-01-20T11:45:50Z</time>
      </trkpt>
      <trkpt lat="48.17032" lon="3.32064">
        <ele>109</ele>
        <time>2024-01-20T11:45:39Z</time>
      </trkpt>
      <trkpt lat="48.17059" lon="3.32073">
        <ele>108.8</ele>
        <time>2024-01-20T11:45:30Z</time>
      </trkpt>
      <trkpt lat="48.17073" lon="3.32078">
        <ele>108</ele>
        <time>2024-01-20T11:45:23Z</time>
      </trkpt>
      <trkpt lat="48.17081" lon="3.32079">
        <ele>107.5</ele>
        <time>2024-01-20T11:45:16Z</time>
      </trkpt>
      <trkpt lat="48.17084" lon="3.3207">
        <ele>107.7</ele>
        <time>2024-01-20T11:45:10Z</time>
      </trkpt>
      <trkpt lat="48.17088" lon="3.32054">
        <ele>107.5</ele>
        <time>2024-01-20T11:44:59Z</time>
      </trkpt>
      <trkpt lat="48.17088" lon="3.32052">
        <ele>107.4</ele>
        <time>2024-01-20T11:44:58Z</time>
      </trkpt>
      <trkpt lat="48.17091" lon="3.32044">
        <ele>106.4</ele>
        <time>2024-01-20T11:44:50Z</time>
      </trkpt>
      <trkpt lat="48.17094" lon="3.3204">
        <ele>105.6</ele>
        <time>2024-01-20T11:44:41Z</time>
      </trkpt>
      <trkpt lat="48.17101" lon="3.32028">
        <ele>104.2</ele>
        <time>2024-01-20T11:44:30Z</time>
      </trkpt>
      <trkpt lat="48.17106" lon="3.32018">
        <ele>103.7</ele>
        <time>2024-01-20T11:44:22Z</time>
      </trkpt>
      <trkpt lat="48.17109" lon="3.32014">
        <ele>103.4</ele>
        <time>2024-01-20T11:44:15Z</time>
      </trkpt>
      <trkpt lat="48.17114" lon="3.32008">
        <ele>102.3</ele>
        <time>2024-01-20T11:44:07Z</time>
      </trkpt>
      <trkpt lat="48.17118" lon="3.32">
        <ele>101.3</ele>
        <time>2024-01-20T11:43:57Z</time>
      </trkpt>
      <trkpt lat="48.17122" lon="3.31991">
        <ele>99.9</ele>
        <time>2024-01-20T11:43:48Z</time>
      </trkpt>
      <trkpt lat="48.17125" lon="3.31987">
        <ele>99</ele>
        <time>2024-01-20T11:43:41Z</time>
      </trkpt>
      <trkpt lat="48.17131" lon="3.31979">
        <ele>97.2</ele>
        <time>2024-01-20T11:43:32Z</time>
      </trkpt>
      <trkpt lat="48.17135" lon="3.31971">
        <ele>96.3</ele>
        <time>2024-01-20T11:43:23Z</time>
      </trkpt>
      <trkpt lat="48.17138" lon="3.31966">
        <ele>95.7</ele>
        <time>2024-01-20T11:43:15Z</time>
      </trkpt>
      <trkpt lat="48.17138" lon="3.31966">
        <ele>95.7</ele>
        <time>2024-01-20T11:42:59Z</time>
      </trkpt>
      <trkpt lat="48.17138" lon="3.31965">
        <ele>95.8</ele>
        <time>2024-01-20T11:42:50Z</time>
      </trkpt>
      <trkpt lat="48.1714" lon="3.31958">
        <ele>95.6</ele>
        <time>2024-01-20T11:42:42Z</time>
      </trkpt>
      <trkpt lat="48.17143" lon="3.31952">
        <ele>95.1</ele>
        <time>2024-01-20T11:42:34Z</time>
      </trkpt>
      <trkpt lat="48.17145" lon="3.31945">
        <ele>95</ele>
        <time>2024-01-20T11:42:14Z</time>
      </trkpt>
      <trkpt lat="48.17145" lon="3.31944">
        <ele>95</ele>
        <time>2024-01-20T11:42:11Z</time>
      </trkpt>
      <trkpt lat="48.17147" lon="3.31941">
        <ele>94.6</ele>
        <time>2024-01-20T11:41:27Z</time>
      </trkpt>
      <trkpt lat="48.17147" lon="3.3194">
        <ele>94.6</ele>
        <time>2024-01-20T11:41:21Z</time>
      </trkpt>
      <trkpt lat="48.17153" lon="3.31928">
        <ele>93.3</ele>
        <time>2024-01-20T11:41:13Z</time>
      </trkpt>
      <trkpt lat="48.17157" lon="3.31919">
        <ele>92.4</ele>
        <time>2024-01-20T11:41:07Z</time>
      </trkpt>
      <trkpt lat="48.17161" lon="3.31909">
        <ele>91.3</ele>
        <time>2024-01-20T11:41:00Z</time>
      </trkpt>
      <trkpt lat="48.17169" lon="3.31897">
        <ele>89</ele>
        <time>2024-01-20T11:40:52Z</time>
      </trkpt>
      <trkpt lat="48.17177" lon="3.31883">
        <ele>86.8</ele>
        <time>2024-01-20T11:40:44Z</time>
      </trkpt>
      <trkpt lat="48.17183" lon="3.31871">
        <ele>85</ele>
        <time>2024-01-20T11:40:37Z</time>
      </trkpt>
      <trkpt lat="48.17183" lon="3.3187">
        <ele>85</ele>
        <time>2024-01-20T11:40:34Z</time>
      </trkpt>
      <trkpt lat="48.17188" lon="3.31863">
        <ele>83.3</ele>
        <time>2024-01-20T11:40:27Z</time>
      </trkpt>
      <trkpt lat="48.17193" lon="3.31853">
        <ele>82.1</ele>
        <time>2024-01-20T11:40:20Z</time>
      </trkpt>
      <trkpt lat="48.17201" lon="3.31833">
        <ele>82.1</ele>
        <time>2024-01-20T11:40:13Z</time>
      </trkpt>
      <trkpt lat="48.17206" lon="3.31812">
        <ele>81.8</ele>
        <time>2024-01-20T11:40:07Z</time>
      </trkpt>
      <trkpt lat="48.17212" lon="3.31788">
        <ele>81.5</ele>
        <time>2024-01-20T11:40:00Z</time>
      </trkpt>
      <trkpt lat="48.17216" lon="3.31765">
        <ele>81.2</ele>
        <time>2024-01-20T11:39:54Z</time>
      </trkpt>
      <trkpt lat="48.1722" lon="3.31739">
        <ele>80.5</ele>
        <time>2024-01-20T11:39:48Z</time>
      </trkpt>
      <trkpt lat="48.17227" lon="3.31713">
        <ele>80.5</ele>
        <time>2024-01-20T11:39:41Z</time>
      </trkpt>
      <trkpt lat="48.17232" lon="3.31684">
        <ele>81.5</ele>
        <time>2024-01-20T11:39:33Z</time>
      </trkpt>
      <trkpt lat="48.17238" lon="3.31659">
        <ele>81.7</ele>
        <time>2024-01-20T11:39:26Z</time>
      </trkpt>
      <trkpt lat="48.17241" lon="3.31635">
        <ele>82.3</ele>
        <time>2024-01-20T11:39:19Z</time>
      </trkpt>
      <trkpt lat="48.17245" lon="3.316">
        <ele>81.9</ele>
        <time>2024-01-20T11:39:10Z</time>
      </trkpt>
      <trkpt lat="48.17246" lon="3.31574">
        <ele>81.7</ele>
        <time>2024-01-20T11:39:03Z</time>
      </trkpt>
      <trkpt lat="48.17246" lon="3.3155">
        <ele>81.6</ele>
        <time>2024-01-20T11:38:56Z</time>
      </trkpt>
      <trkpt lat="48.17246" lon="3.31547">
        <ele>81.6</ele>
        <time>2024-01-20T11:38:55Z</time>
      </trkpt>
      <trkpt lat="48.1725" lon="3.31514">
        <ele>81</ele>
        <time>2024-01-20T11:38:46Z</time>
      </trkpt>
      <trkpt lat="48.17256" lon="3.31481">
        <ele>80.6</ele>
        <time>2024-01-20T11:38:38Z</time>
      </trkpt>
      <trkpt lat="48.17262" lon="3.31445">
        <ele>81.2</ele>
        <time>2024-01-20T11:38:31Z</time>
      </trkpt>
      <trkpt lat="48.17269" lon="3.31401">
        <ele>80.8</ele>
        <time>2024-01-20T11:38:23Z</time>
      </trkpt>
      <trkpt lat="48.17275" lon="3.31355">
        <ele>80.6</ele>
        <time>2024-01-20T11:38:15Z</time>
      </trkpt>
      <trkpt lat="48.17281" lon="3.31309">
        <ele>79.8</ele>
        <time>2024-01-20T11:38:06Z</time>
      </trkpt>
      <trkpt lat="48.17288" lon="3.31275">
        <ele>81.2</ele>
        <time>2024-01-20T11:37:59Z</time>
      </trkpt>
      <trkpt lat="48.17307" lon="3.31225">
        <ele>78.9</ele>
        <time>2024-01-20T11:37:50Z</time>
      </trkpt>
      <trkpt lat="48.17327" lon="3.31174">
        <ele>79.5</ele>
        <time>2024-01-20T11:37:41Z</time>
      </trkpt>
      <trkpt lat="48.1733" lon="3.31168">
        <ele>79.3</ele>
        <time>2024-01-20T11:37:40Z</time>
      </trkpt>
      <trkpt lat="48.17332" lon="3.31161">
        <ele>79.4</ele>
        <time>2024-01-20T11:37:39Z</time>
      </trkpt>
      <trkpt lat="48.17337" lon="3.31149">
        <ele>79.3</ele>
        <time>2024-01-20T11:37:37Z</time>
      </trkpt>
      <trkpt lat="48.1734" lon="3.31143">
        <ele>79.2</ele>
        <time>2024-01-20T11:37:36Z</time>
      </trkpt>
      <trkpt lat="48.17347" lon="3.31102">
        <ele>79.2</ele>
        <time>2024-01-20T11:37:29Z</time>
      </trkpt>
      <trkpt lat="48.17353" lon="3.31058">
        <ele>79.3</ele>
        <time>2024-01-20T11:37:21Z</time>
      </trkpt>
      <trkpt lat="48.17354" lon="3.31053">
        <ele>79.3</ele>
        <time>2024-01-20T11:37:20Z</time>
      </trkpt>
      <trkpt lat="48.17355" lon="3.31049">
        <ele>79.3</ele>
        <time>2024-01-20T11:37:19Z</time>
      </trkpt>
      <trkpt lat="48.17356" lon="3.31045">
        <ele>79.3</ele>
        <time>2024-01-20T11:37:18Z</time>
      </trkpt>
      <trkpt lat="48.17357" lon="3.31041">
        <ele>79.3</ele>
        <time>2024-01-20T11:37:17Z</time>
      </trkpt>
      <trkpt lat="48.1736" lon="3.31038">
        <ele>79.1</ele>
        <time>2024-01-20T11:37:16Z</time>
      </trkpt>
      <trkpt lat="48.17381" lon="3.31043">
        <ele>78.3</ele>
        <time>2024-01-20T11:37:11Z</time>
      </trkpt>
      <trkpt lat="48.17385" lon="3.31045">
        <ele>78.1</ele>
        <time>2024-01-20T11:37:10Z</time>
      </trkpt>
      <trkpt lat="48.1739" lon="3.31047">
        <ele>78</ele>
        <time>2024-01-20T11:37:09Z</time>
      </trkpt>
      <trkpt lat="48.17395" lon="3.31048">
        <ele>78</ele>
        <time>2024-01-20T11:37:08Z</time>
      </trkpt>
      <trkpt lat="48.174" lon="3.31048">
        <ele>78</ele>
        <time>2024-01-20T11:37:07Z</time>
      </trkpt>
      <trkpt lat="48.17406" lon="3.31048">
        <ele>78</ele>
        <time>2024-01-20T11:37:06Z</time>
      </trkpt>
      <trkpt lat="48.1742" lon="3.31051">
        <ele>78</ele>
        <time>2024-01-20T11:37:03Z</time>
      </trkpt>
      <trkpt lat="48.17469" lon="3.31061">
        <ele>78</ele>
        <time>2024-01-20T11:36:53Z</time>
      </trkpt>
      <trkpt lat="48.17475" lon="3.31062">
        <ele>77.9</ele>
        <time>2024-01-20T11:36:52Z</time>
      </trkpt>
      <trkpt lat="48.17516" lon="3.31065">
        <ele>77</ele>
        <time>2024-01-20T11:36:44Z</time>
      </trkpt>
      <trkpt lat="48.17556" lon="3.31071">
        <ele>76.4</ele>
        <time>2024-01-20T11:36:36Z</time>
      </trkpt>
      <trkpt lat="48.17566" lon="3.31071">
        <ele>76.3</ele>
        <time>2024-01-20T11:36:34Z</time>
      </trkpt>
      <trkpt lat="48.1757" lon="3.31071">
        <ele>76.2</ele>
        <time>2024-01-20T11:36:33Z</time>
      </trkpt>
      <trkpt lat="48.17574" lon="3.31072">
        <ele>76.1</ele>
        <time>2024-01-20T11:36:32Z</time>
      </trkpt>
      <trkpt lat="48.17578" lon="3.31072">
        <ele>76.1</ele>
        <time>2024-01-20T11:36:31Z</time>
      </trkpt>
      <trkpt lat="48.17582" lon="3.31074">
        <ele>76</ele>
        <time>2024-01-20T11:36:30Z</time>
      </trkpt>
      <trkpt lat="48.17585" lon="3.31079">
        <ele>76.1</ele>
        <time>2024-01-20T11:36:29Z</time>
      </trkpt>
      <trkpt lat="48.17587" lon="3.31084">
        <ele>76.1</ele>
        <time>2024-01-20T11:36:28Z</time>
      </trkpt>
      <trkpt lat="48.17587" lon="3.31089">
        <ele>76.1</ele>
        <time>2024-01-20T11:36:27Z</time>
      </trkpt>
      <trkpt lat="48.17587" lon="3.31093">
        <ele>76.1</ele>
        <time>2024-01-20T11:36:26Z</time>
      </trkpt>
      <trkpt lat="48.17587" lon="3.31098">
        <ele>76.1</ele>
        <time>2024-01-20T11:36:25Z</time>
      </trkpt>
      <trkpt lat="48.17588" lon="3.31101">
        <ele>76.2</ele>
        <time>2024-01-20T11:36:24Z</time>
      </trkpt>
      <trkpt lat="48.17589" lon="3.31103">
        <ele>76.2</ele>
        <time>2024-01-20T11:36:23Z</time>
      </trkpt>
      <trkpt lat="48.17591" lon="3.31104">
        <ele>76.3</ele>
        <time>2024-01-20T11:36:22Z</time>
      </trkpt>
      <trkpt lat="48.17628" lon="3.31122">
        <ele>77.8</ele>
        <time>2024-01-20T11:36:14Z</time>
      </trkpt>
      <trkpt lat="48.17669" lon="3.31141">
        <ele>77.8</ele>
        <time>2024-01-20T11:36:05Z</time>
      </trkpt>
      <trkpt lat="48.17674" lon="3.31143">
        <ele>77.6</ele>
        <time>2024-01-20T11:36:04Z</time>
      </trkpt>
      <trkpt lat="48.17678" lon="3.31145">
        <ele>77.5</ele>
        <time>2024-01-20T11:36:03Z</time>
      </trkpt>
      <trkpt lat="48.17683" lon="3.31148">
        <ele>77.3</ele>
        <time>2024-01-20T11:36:02Z</time>
      </trkpt>
      <trkpt lat="48.17687" lon="3.31151">
        <ele>77.2</ele>
        <time>2024-01-20T11:36:01Z</time>
      </trkpt>
      <trkpt lat="48.17691" lon="3.31153">
        <ele>77.1</ele>
        <time>2024-01-20T11:36:00Z</time>
      </trkpt>
      <trkpt lat="48.17696" lon="3.31153">
        <ele>77.1</ele>
        <time>2024-01-20T11:35:59Z</time>
      </trkpt>
      <trkpt lat="48.177" lon="3.31151">
        <ele>77.2</ele>
        <time>2024-01-20T11:35:58Z</time>
      </trkpt>
      <trkpt lat="48.17703" lon="3.31147">
        <ele>77.3</ele>
        <time>2024-01-20T11:35:57Z</time>
      </trkpt>
      <trkpt lat="48.17706" lon="3.31142">
        <ele>77.4</ele>
        <time>2024-01-20T11:35:56Z</time>
      </trkpt>
      <trkpt lat="48.1771" lon="3.31123">
        <ele>77.2</ele>
        <time>2024-01-20T11:35:53Z</time>
      </trkpt>
      <trkpt lat="48.17711" lon="3.31116">
        <ele>77.1</ele>
        <time>2024-01-20T11:35:52Z</time>
      </trkpt>
      <trkpt lat="48.17712" lon="3.31109">
        <ele>77</ele>
        <time>2024-01-20T11:35:51Z</time>
      </trkpt>
      <trkpt lat="48.17713" lon="3.31102">
        <ele>77</ele>
        <time>2024-01-20T11:35:50Z</time>
      </trkpt>
      <trkpt lat="48.17713" lon="3.31095">
        <ele>77</ele>
        <time>2024-01-20T11:35:49Z</time>
      </trkpt>
      <trkpt lat="48.17723" lon="3.31039">
        <ele>77</ele>
        <time>2024-01-20T11:35:41Z</time>
      </trkpt>
      <trkpt lat="48.17735" lon="3.30969">
        <ele>76.1</ele>
        <time>2024-01-20T11:35:31Z</time>
      </trkpt>
      <trkpt lat="48.17749" lon="3.30892">
        <ele>76</ele>
        <time>2024-01-20T11:35:20Z</time>
      </trkpt>
      <trkpt lat="48.17759" lon="3.3083">
        <ele>75.7</ele>
        <time>2024-01-20T11:35:11Z</time>
      </trkpt>
      <trkpt lat="48.17767" lon="3.30785">
        <ele>75.8</ele>
        <time>2024-01-20T11:35:04Z</time>
      </trkpt>
      <trkpt lat="48.17768" lon="3.30779">
        <ele>76</ele>
        <time>2024-01-20T11:35:03Z</time>
      </trkpt>
      <trkpt lat="48.17773" lon="3.30761">
        <ele>74.9</ele>
        <time>2024-01-20T11:35:00Z</time>
      </trkpt>
      <trkpt lat="48.17775" lon="3.30749">
        <ele>74.1</ele>
        <time>2024-01-20T11:34:58Z</time>
      </trkpt>
      <trkpt lat="48.17775" lon="3.30743">
        <ele>74.1</ele>
        <time>2024-01-20T11:34:57Z</time>
      </trkpt>
      <trkpt lat="48.17775" lon="3.30737">
        <ele>74.1</ele>
        <time>2024-01-20T11:34:56Z</time>
      </trkpt>
      <trkpt lat="48.17766" lon="3.30673">
        <ele>73.9</ele>
        <time>2024-01-20T11:34:47Z</time>
      </trkpt>
      <trkpt lat="48.17759" lon="3.30637">
        <ele>73</ele>
        <time>2024-01-20T11:34:40Z</time>
      </trkpt>
      <trkpt lat="48.17759" lon="3.30634">
        <ele>72.9</ele>
        <time>2024-01-20T11:34:39Z</time>
      </trkpt>
      <trkpt lat="48.17763" lon="3.30624">
        <ele>72.7</ele>
        <time>2024-01-20T11:34:36Z</time>
      </trkpt>
      <trkpt lat="48.17766" lon="3.30621">
        <ele>72.6</ele>
        <time>2024-01-20T11:34:35Z</time>
      </trkpt>
      <trkpt lat="48.17768" lon="3.30618">
        <ele>72.5</ele>
        <time>2024-01-20T11:34:34Z</time>
      </trkpt>
      <trkpt lat="48.17771" lon="3.30616">
        <ele>72.4</ele>
        <time>2024-01-20T11:34:33Z</time>
      </trkpt>
      <trkpt lat="48.17774" lon="3.30614">
        <ele>72.2</ele>
        <time>2024-01-20T11:34:32Z</time>
      </trkpt>
      <trkpt lat="48.17778" lon="3.30612">
        <ele>72</ele>
        <time>2024-01-20T11:34:31Z</time>
      </trkpt>
      <trkpt lat="48.17782" lon="3.30611">
        <ele>72.2</ele>
        <time>2024-01-20T11:34:30Z</time>
      </trkpt>
      <trkpt lat="48.17796" lon="3.30612">
        <ele>72.7</ele>
        <time>2024-01-20T11:34:27Z</time>
      </trkpt>
      <trkpt lat="48.1783" lon="3.30606">
        <ele>73</ele>
        <time>2024-01-20T11:34:20Z</time>
      </trkpt>
      <trkpt lat="48.17867" lon="3.30601">
        <ele>72.7</ele>
        <time>2024-01-20T11:34:12Z</time>
      </trkpt>
      <trkpt lat="48.17919" lon="3.30595">
        <ele>72.5</ele>
        <time>2024-01-20T11:34:03Z</time>
      </trkpt>
      <trkpt lat="48.17925" lon="3.30596">
        <ele>72.8</ele>
        <time>2024-01-20T11:34:02Z</time>
      </trkpt>
      <trkpt lat="48.17931" lon="3.30596">
        <ele>73</ele>
        <time>2024-01-20T11:34:01Z</time>
      </trkpt>
      <trkpt lat="48.17937" lon="3.30597">
        <ele>73.2</ele>
        <time>2024-01-20T11:34:00Z</time>
      </trkpt>
      <trkpt lat="48.17942" lon="3.306">
        <ele>73.3</ele>
        <time>2024-01-20T11:33:59Z</time>
      </trkpt>
      <trkpt lat="48.17953" lon="3.30607">
        <ele>73.1</ele>
        <time>2024-01-20T11:33:57Z</time>
      </trkpt>
      <trkpt lat="48.18023" lon="3.30671">
        <ele>73.9</ele>
        <time>2024-01-20T11:33:43Z</time>
      </trkpt>
      <trkpt lat="48.18043" lon="3.30691">
        <ele>74</ele>
        <time>2024-01-20T11:33:39Z</time>
      </trkpt>
      <trkpt lat="48.181" lon="3.30741">
        <ele>74.8</ele>
        <time>2024-01-20T11:33:27Z</time>
      </trkpt>
      <trkpt lat="48.18146" lon="3.30782">
        <ele>75</ele>
        <time>2024-01-20T11:33:17Z</time>
      </trkpt>
      <trkpt lat="48.1815" lon="3.30787">
        <ele>75</ele>
        <time>2024-01-20T11:33:16Z</time>
      </trkpt>
      <trkpt lat="48.18154" lon="3.30791">
        <ele>75</ele>
        <time>2024-01-20T11:33:15Z</time>
      </trkpt>
      <trkpt lat="48.18158" lon="3.30795">
        <ele>75</ele>
        <time>2024-01-20T11:33:14Z</time>
      </trkpt>
      <trkpt lat="48.18162" lon="3.30797">
        <ele>75</ele>
        <time>2024-01-20T11:33:13Z</time>
      </trkpt>
      <trkpt lat="48.18166" lon="3.30797">
        <ele>75</ele>
        <time>2024-01-20T11:33:12Z</time>
      </trkpt>
      <trkpt lat="48.1817" lon="3.30795">
        <ele>75</ele>
        <time>2024-01-20T11:33:11Z</time>
      </trkpt>
      <trkpt lat="48.18174" lon="3.3079">
        <ele>74.9</ele>
        <time>2024-01-20T11:33:10Z</time>
      </trkpt>
      <trkpt lat="48.18176" lon="3.30785">
        <ele>74.8</ele>
        <time>2024-01-20T11:33:09Z</time>
      </trkpt>
      <trkpt lat="48.18189" lon="3.3074">
        <ele>74.2</ele>
        <time>2024-01-20T11:33:02Z</time>
      </trkpt>
      <trkpt lat="48.18191" lon="3.30733">
        <ele>74.1</ele>
        <time>2024-01-20T11:33:01Z</time>
      </trkpt>
      <trkpt lat="48.18208" lon="3.30662">
        <ele>74</ele>
        <time>2024-01-20T11:32:51Z</time>
      </trkpt>
      <trkpt lat="48.18224" lon="3.30602">
        <ele>74</ele>
        <time>2024-01-20T11:32:42Z</time>
      </trkpt>
      <trkpt lat="48.18225" lon="3.30596">
        <ele>74</ele>
        <time>2024-01-20T11:32:41Z</time>
      </trkpt>
      <trkpt lat="48.18227" lon="3.3059">
        <ele>74</ele>
        <time>2024-01-20T11:32:40Z</time>
      </trkpt>
      <trkpt lat="48.18233" lon="3.30544">
        <ele>73</ele>
        <time>2024-01-20T11:32:33Z</time>
      </trkpt>
      <trkpt lat="48.1823" lon="3.30495">
        <ele>73.1</ele>
        <time>2024-01-20T11:32:25Z</time>
      </trkpt>
      <trkpt lat="48.18224" lon="3.30425">
        <ele>73.3</ele>
        <time>2024-01-20T11:32:14Z</time>
      </trkpt>
      <trkpt lat="48.1822" lon="3.30371">
        <ele>73</ele>
        <time>2024-01-20T11:32:05Z</time>
      </trkpt>
      <trkpt lat="48.18221" lon="3.30336">
        <ele>73.9</ele>
        <time>2024-01-20T11:31:58Z</time>
      </trkpt>
      <trkpt lat="48.18217" lon="3.30322">
        <ele>73.6</ele>
        <time>2024-01-20T11:31:53Z</time>
      </trkpt>
      <trkpt lat="48.18221" lon="3.30308">
        <ele>73.1</ele>
        <time>2024-01-20T11:31:48Z</time>
      </trkpt>
      <trkpt lat="48.18222" lon="3.30304">
        <ele>73</ele>
        <time>2024-01-20T11:31:47Z</time>
      </trkpt>
      <trkpt lat="48.18222" lon="3.303">
        <ele>72.8</ele>
        <time>2024-01-20T11:31:46Z</time>
      </trkpt>
      <trkpt lat="48.18222" lon="3.30295">
        <ele>72.6</ele>
        <time>2024-01-20T11:31:45Z</time>
      </trkpt>
      <trkpt lat="48.1822" lon="3.30289">
        <ele>72.5</ele>
        <time>2024-01-20T11:31:44Z</time>
      </trkpt>
      <trkpt lat="48.18218" lon="3.30283">
        <ele>72.5</ele>
        <time>2024-01-20T11:31:43Z</time>
      </trkpt>
      <trkpt lat="48.18215" lon="3.30276">
        <ele>72.5</ele>
        <time>2024-01-20T11:31:42Z</time>
      </trkpt>
      <trkpt lat="48.18213" lon="3.3027">
        <ele>72.5</ele>
        <time>2024-01-20T11:31:41Z</time>
      </trkpt>
      <trkpt lat="48.18212" lon="3.30262">
        <ele>72.3</ele>
        <time>2024-01-20T11:31:40Z</time>
      </trkpt>
      <trkpt lat="48.1821" lon="3.30254">
        <ele>72.1</ele>
        <time>2024-01-20T11:31:39Z</time>
      </trkpt>
      <trkpt lat="48.18208" lon="3.30214">
        <ele>72</ele>
        <time>2024-01-20T11:31:34Z</time>
      </trkpt>
      <trkpt lat="48.18203" lon="3.30135">
        <ele>71.4</ele>
        <time>2024-01-20T11:31:25Z</time>
      </trkpt>
      <trkpt lat="48.18201" lon="3.30044">
        <ele>72</ele>
        <time>2024-01-20T11:31:14Z</time>
      </trkpt>
      <trkpt lat="48.182" lon="3.30036">
        <ele>72</ele>
        <time>2024-01-20T11:31:13Z</time>
      </trkpt>
      <trkpt lat="48.18199" lon="3.30027">
        <ele>72</ele>
        <time>2024-01-20T11:31:12Z</time>
      </trkpt>
      <trkpt lat="48.18194" lon="3.29948">
        <ele>72</ele>
        <time>2024-01-20T11:31:03Z</time>
      </trkpt>
      <trkpt lat="48.182" lon="3.29858">
        <ele>72</ele>
        <time>2024-01-20T11:30:53Z</time>
      </trkpt>
      <trkpt lat="48.18206" lon="3.29798">
        <ele>71.8</ele>
        <time>2024-01-20T11:30:46Z</time>
      </trkpt>
      <trkpt lat="48.18207" lon="3.2979">
        <ele>71.7</ele>
        <time>2024-01-20T11:30:45Z</time>
      </trkpt>
      <trkpt lat="48.18209" lon="3.29776">
        <ele>71.6</ele>
        <time>2024-01-20T11:30:43Z</time>
      </trkpt>
      <trkpt lat="48.18221" lon="3.29736">
        <ele>72</ele>
        <time>2024-01-20T11:30:37Z</time>
      </trkpt>
      <trkpt lat="48.18223" lon="3.2973">
        <ele>72</ele>
        <time>2024-01-20T11:30:36Z</time>
      </trkpt>
      <trkpt lat="48.18225" lon="3.29725">
        <ele>72</ele>
        <time>2024-01-20T11:30:35Z</time>
      </trkpt>
      <trkpt lat="48.18229" lon="3.2972">
        <ele>71.9</ele>
        <time>2024-01-20T11:30:34Z</time>
      </trkpt>
      <trkpt lat="48.18232" lon="3.29718">
        <ele>71.9</ele>
        <time>2024-01-20T11:30:33Z</time>
      </trkpt>
      <trkpt lat="48.18236" lon="3.29719">
        <ele>71.9</ele>
        <time>2024-01-20T11:30:32Z</time>
      </trkpt>
      <trkpt lat="48.18253" lon="3.29724">
        <ele>72</ele>
        <time>2024-01-20T11:30:28Z</time>
      </trkpt>
      <trkpt lat="48.18257" lon="3.29725">
        <ele>72</ele>
        <time>2024-01-20T11:30:27Z</time>
      </trkpt>
      <trkpt lat="48.18291" lon="3.29735">
        <ele>72</ele>
        <time>2024-01-20T11:30:19Z</time>
      </trkpt>
      <trkpt lat="48.18334" lon="3.29748">
        <ele>72</ele>
        <time>2024-01-20T11:30:09Z</time>
      </trkpt>
      <trkpt lat="48.18342" lon="3.29751">
        <ele>72</ele>
        <time>2024-01-20T11:30:07Z</time>
      </trkpt>
      <trkpt lat="48.18368" lon="3.2976">
        <ele>72</ele>
        <time>2024-01-20T11:30:01Z</time>
      </trkpt>
      <trkpt lat="48.18406" lon="3.29772">
        <ele>71.9</ele>
        <time>2024-01-20T11:29:52Z</time>
      </trkpt>
      <trkpt lat="48.18451" lon="3.29776">
        <ele>71.7</ele>
        <time>2024-01-20T11:29:42Z</time>
      </trkpt>
      <trkpt lat="48.18455" lon="3.29776">
        <ele>71.6</ele>
        <time>2024-01-20T11:29:41Z</time>
      </trkpt>
      <trkpt lat="48.18459" lon="3.29776">
        <ele>71.5</ele>
        <time>2024-01-20T11:29:40Z</time>
      </trkpt>
      <trkpt lat="48.18464" lon="3.29777">
        <ele>71.3</ele>
        <time>2024-01-20T11:29:39Z</time>
      </trkpt>
      <trkpt lat="48.18468" lon="3.29777">
        <ele>71.2</ele>
        <time>2024-01-20T11:29:38Z</time>
      </trkpt>
      <trkpt lat="48.18471" lon="3.29776">
        <ele>71.1</ele>
        <time>2024-01-20T11:29:37Z</time>
      </trkpt>
      <trkpt lat="48.18478" lon="3.29762">
        <ele>71.6</ele>
        <time>2024-01-20T11:29:34Z</time>
      </trkpt>
      <trkpt lat="48.18479" lon="3.29756">
        <ele>71.8</ele>
        <time>2024-01-20T11:29:33Z</time>
      </trkpt>
      <trkpt lat="48.1848" lon="3.2975">
        <ele>72</ele>
        <time>2024-01-20T11:29:32Z</time>
      </trkpt>
      <trkpt lat="48.1848" lon="3.29745">
        <ele>71.9</ele>
        <time>2024-01-20T11:29:31Z</time>
      </trkpt>
      <trkpt lat="48.18481" lon="3.29739">
        <ele>71.9</ele>
        <time>2024-01-20T11:29:30Z</time>
      </trkpt>
      <trkpt lat="48.18482" lon="3.29735">
        <ele>71.8</ele>
        <time>2024-01-20T11:29:29Z</time>
      </trkpt>
      <trkpt lat="48.18489" lon="3.29732">
        <ele>71.6</ele>
        <time>2024-01-20T11:29:27Z</time>
      </trkpt>
      <trkpt lat="48.1851" lon="3.29734">
        <ele>71.5</ele>
        <time>2024-01-20T11:29:21Z</time>
      </trkpt>
      <trkpt lat="48.18537" lon="3.29732">
        <ele>71.4</ele>
        <time>2024-01-20T11:29:14Z</time>
      </trkpt>
      <trkpt lat="48.18541" lon="3.29733">
        <ele>71.3</ele>
        <time>2024-01-20T11:29:13Z</time>
      </trkpt>
      <trkpt lat="48.18544" lon="3.29734">
        <ele>71.2</ele>
        <time>2024-01-20T11:29:12Z</time>
      </trkpt>
      <trkpt lat="48.18547" lon="3.29734">
        <ele>71.2</ele>
        <time>2024-01-20T11:29:11Z</time>
      </trkpt>
      <trkpt lat="48.18551" lon="3.29732">
        <ele>71.1</ele>
        <time>2024-01-20T11:29:10Z</time>
      </trkpt>
      <trkpt lat="48.18555" lon="3.2971">
        <ele>71</ele>
        <time>2024-01-20T11:29:04Z</time>
      </trkpt>
      <trkpt lat="48.18563" lon="3.29671">
        <ele>71</ele>
        <time>2024-01-20T11:28:57Z</time>
      </trkpt>
      <trkpt lat="48.18574" lon="3.29621">
        <ele>71</ele>
        <time>2024-01-20T11:28:49Z</time>
      </trkpt>
      <trkpt lat="48.18586" lon="3.29558">
        <ele>71</ele>
        <time>2024-01-20T11:28:40Z</time>
      </trkpt>
      <trkpt lat="48.1859" lon="3.29531">
        <ele>71</ele>
        <time>2024-01-20T11:28:35Z</time>
      </trkpt>
      <trkpt lat="48.18591" lon="3.29526">
        <ele>71</ele>
        <time>2024-01-20T11:28:34Z</time>
      </trkpt>
      <trkpt lat="48.18591" lon="3.29522">
        <ele>71</ele>
        <time>2024-01-20T11:28:33Z</time>
      </trkpt>
      <trkpt lat="48.18592" lon="3.29518">
        <ele>71</ele>
        <time>2024-01-20T11:28:32Z</time>
      </trkpt>
      <trkpt lat="48.18592" lon="3.29515">
        <ele>71</ele>
        <time>2024-01-20T11:28:31Z</time>
      </trkpt>
      <trkpt lat="48.18591" lon="3.29514">
        <ele>71</ele>
        <time>2024-01-20T11:28:30Z</time>
      </trkpt>
      <trkpt lat="48.18591" lon="3.29512">
        <ele>71</ele>
        <time>2024-01-20T11:28:29Z</time>
      </trkpt>
      <trkpt lat="48.18595" lon="3.29512">
        <ele>71</ele>
        <time>2024-01-20T11:28:25Z</time>
      </trkpt>
      <trkpt lat="48.18649" lon="3.29508">
        <ele>71.1</ele>
        <time>2024-01-20T11:28:16Z</time>
      </trkpt>
      <trkpt lat="48.18654" lon="3.29508">
        <ele>71.2</ele>
        <time>2024-01-20T11:28:15Z</time>
      </trkpt>
      <trkpt lat="48.1866" lon="3.29508">
        <ele>71.2</ele>
        <time>2024-01-20T11:28:14Z</time>
      </trkpt>
      <trkpt lat="48.18681" lon="3.29517">
        <ele>71.3</ele>
        <time>2024-01-20T11:28:10Z</time>
      </trkpt>
      <trkpt lat="48.18725" lon="3.29534">
        <ele>71.2</ele>
        <time>2024-01-20T11:28:02Z</time>
      </trkpt>
      <trkpt lat="48.1873" lon="3.29535">
        <ele>71.3</ele>
        <time>2024-01-20T11:28:01Z</time>
      </trkpt>
      <trkpt lat="48.18735" lon="3.29537">
        <ele>71.3</ele>
        <time>2024-01-20T11:28:00Z</time>
      </trkpt>
      <trkpt lat="48.18745" lon="3.2954">
        <ele>71.4</ele>
        <time>2024-01-20T11:27:58Z</time>
      </trkpt>
      <trkpt lat="48.18751" lon="3.29541">
        <ele>71.5</ele>
        <time>2024-01-20T11:27:57Z</time>
      </trkpt>
      <trkpt lat="48.18756" lon="3.29542">
        <ele>71.6</ele>
        <time>2024-01-20T11:27:56Z</time>
      </trkpt>
      <trkpt lat="48.1876" lon="3.29542">
        <ele>71.7</ele>
        <time>2024-01-20T11:27:55Z</time>
      </trkpt>
      <trkpt lat="48.18765" lon="3.2954">
        <ele>71.7</ele>
        <time>2024-01-20T11:27:54Z</time>
      </trkpt>
      <trkpt lat="48.18769" lon="3.29537">
        <ele>71.8</ele>
        <time>2024-01-20T11:27:53Z</time>
      </trkpt>
      <trkpt lat="48.18772" lon="3.29531">
        <ele>71.8</ele>
        <time>2024-01-20T11:27:52Z</time>
      </trkpt>
      <trkpt lat="48.18781" lon="3.29503">
        <ele>72</ele>
        <time>2024-01-20T11:27:48Z</time>
      </trkpt>
      <trkpt lat="48.18795" lon="3.29442">
        <ele>71.6</ele>
        <time>2024-01-20T11:27:40Z</time>
      </trkpt>
      <trkpt lat="48.18808" lon="3.2938">
        <ele>71.7</ele>
        <time>2024-01-20T11:27:31Z</time>
      </trkpt>
      <trkpt lat="48.18809" lon="3.29375">
        <ele>71.6</ele>
        <time>2024-01-20T11:27:30Z</time>
      </trkpt>
      <trkpt lat="48.18811" lon="3.29369">
        <ele>71.4</ele>
        <time>2024-01-20T11:27:29Z</time>
      </trkpt>
      <trkpt lat="48.18812" lon="3.29366">
        <ele>71.4</ele>
        <time>2024-01-20T11:27:28Z</time>
      </trkpt>
      <trkpt lat="48.18815" lon="3.2936">
        <ele>71.3</ele>
        <time>2024-01-20T11:27:27Z</time>
      </trkpt>
      <trkpt lat="48.18817" lon="3.29359">
        <ele>71.4</ele>
        <time>2024-01-20T11:27:26Z</time>
      </trkpt>
      <trkpt lat="48.18863" lon="3.29378">
        <ele>72</ele>
        <time>2024-01-20T11:27:17Z</time>
      </trkpt>
      <trkpt lat="48.18912" lon="3.29404">
        <ele>72.8</ele>
        <time>2024-01-20T11:27:08Z</time>
      </trkpt>
      <trkpt lat="48.18957" lon="3.29416">
        <ele>73</ele>
        <time>2024-01-20T11:27:00Z</time>
      </trkpt>
      <trkpt lat="48.18963" lon="3.29417">
        <ele>73</ele>
        <time>2024-01-20T11:26:59Z</time>
      </trkpt>
      <trkpt lat="48.18969" lon="3.29417">
        <ele>73</ele>
        <time>2024-01-20T11:26:58Z</time>
      </trkpt>
      <trkpt lat="48.18974" lon="3.29416">
        <ele>73</ele>
        <time>2024-01-20T11:26:57Z</time>
      </trkpt>
      <trkpt lat="48.18979" lon="3.29415">
        <ele>73</ele>
        <time>2024-01-20T11:26:56Z</time>
      </trkpt>
      <trkpt lat="48.18982" lon="3.29413">
        <ele>73</ele>
        <time>2024-01-20T11:26:55Z</time>
      </trkpt>
      <trkpt lat="48.18988" lon="3.29407">
        <ele>73</ele>
        <time>2024-01-20T11:26:54Z</time>
      </trkpt>
      <trkpt lat="48.18991" lon="3.29402">
        <ele>73</ele>
        <time>2024-01-20T11:26:53Z</time>
      </trkpt>
      <trkpt lat="48.18995" lon="3.29396">
        <ele>73</ele>
        <time>2024-01-20T11:26:52Z</time>
      </trkpt>
      <trkpt lat="48.19014" lon="3.29352">
        <ele>73</ele>
        <time>2024-01-20T11:26:45Z</time>
      </trkpt>
      <trkpt lat="48.1904" lon="3.29298">
        <ele>73</ele>
        <time>2024-01-20T11:26:36Z</time>
      </trkpt>
      <trkpt lat="48.19044" lon="3.29292">
        <ele>73</ele>
        <time>2024-01-20T11:26:35Z</time>
      </trkpt>
      <trkpt lat="48.19047" lon="3.29286">
        <ele>73</ele>
        <time>2024-01-20T11:26:34Z</time>
      </trkpt>
      <trkpt lat="48.19061" lon="3.29267">
        <ele>72.9</ele>
        <time>2024-01-20T11:26:30Z</time>
      </trkpt>
      <trkpt lat="48.19084" lon="3.29236">
        <ele>73</ele>
        <time>2024-01-20T11:26:23Z</time>
      </trkpt>
      <trkpt lat="48.19097" lon="3.29222">
        <ele>73</ele>
        <time>2024-01-20T11:26:18Z</time>
      </trkpt>
      <trkpt lat="48.19099" lon="3.29217">
        <ele>73</ele>
        <time>2024-01-20T11:26:15Z</time>
      </trkpt>
      <trkpt lat="48.19101" lon="3.29214">
        <ele>73</ele>
        <time>2024-01-20T11:26:01Z</time>
      </trkpt>
      <trkpt lat="48.19103" lon="3.29212">
        <ele>73</ele>
        <time>2024-01-20T11:17:40Z</time>
      </trkpt>
      <trkpt lat="48.19104" lon="3.29212">
        <ele>73</ele>
        <time>2024-01-20T11:17:34Z</time>
      </trkpt>
      <trkpt lat="48.19106" lon="3.29212">
        <ele>73</ele>
        <time>2024-01-20T11:17:33Z</time>
      </trkpt>
      <trkpt lat="48.19136" lon="3.29178">
        <ele>72.9</ele>
        <time>2024-01-20T11:17:24Z</time>
      </trkpt>
      <trkpt lat="48.19145" lon="3.29163">
        <ele>73</ele>
        <time>2024-01-20T11:17:21Z</time>
      </trkpt>
      <trkpt lat="48.19148" lon="3.29157">
        <ele>73</ele>
        <time>2024-01-20T11:17:20Z</time>
      </trkpt>
      <trkpt lat="48.19153" lon="3.29144">
        <ele>73</ele>
        <time>2024-01-20T11:17:18Z</time>
      </trkpt>
      <trkpt lat="48.19167" lon="3.29082">
        <ele>72.9</ele>
        <time>2024-01-20T11:17:09Z</time>
      </trkpt>
      <trkpt lat="48.19172" lon="3.29014">
        <ele>72</ele>
        <time>2024-01-20T11:16:59Z</time>
      </trkpt>
      <trkpt lat="48.19171" lon="3.29007">
        <ele>72</ele>
        <time>2024-01-20T11:16:58Z</time>
      </trkpt>
      <trkpt lat="48.19171" lon="3.28979">
        <ele>72</ele>
        <time>2024-01-20T11:16:53Z</time>
      </trkpt>
      <trkpt lat="48.19173" lon="3.28962">
        <ele>72</ele>
        <time>2024-01-20T11:16:48Z</time>
      </trkpt>
      <trkpt lat="48.19176" lon="3.28918">
        <ele>71</ele>
        <time>2024-01-20T11:16:41Z</time>
      </trkpt>
      <trkpt lat="48.19179" lon="3.28849">
        <ele>71</ele>
        <time>2024-01-20T11:16:32Z</time>
      </trkpt>
      <trkpt lat="48.19181" lon="3.28797">
        <ele>71</ele>
        <time>2024-01-20T11:16:25Z</time>
      </trkpt>
      <trkpt lat="48.19181" lon="3.28791">
        <ele>71</ele>
        <time>2024-01-20T11:16:24Z</time>
      </trkpt>
      <trkpt lat="48.19182" lon="3.28783">
        <ele>71</ele>
        <time>2024-01-20T11:16:23Z</time>
      </trkpt>
      <trkpt lat="48.19184" lon="3.28774">
        <ele>71.1</ele>
        <time>2024-01-20T11:16:21Z</time>
      </trkpt>
      <trkpt lat="48.19186" lon="3.2877">
        <ele>71.2</ele>
        <time>2024-01-20T11:16:20Z</time>
      </trkpt>
      <trkpt lat="48.19189" lon="3.28768">
        <ele>71.3</ele>
        <time>2024-01-20T11:16:19Z</time>
      </trkpt>
      <trkpt lat="48.19194" lon="3.28768">
        <ele>71.3</ele>
        <time>2024-01-20T11:16:18Z</time>
      </trkpt>
      <trkpt lat="48.19238" lon="3.28773">
        <ele>71.1</ele>
        <time>2024-01-20T11:16:09Z</time>
      </trkpt>
      <trkpt lat="48.19262" lon="3.28775">
        <ele>71.1</ele>
        <time>2024-01-20T11:16:03Z</time>
      </trkpt>
      <trkpt lat="48.1927" lon="3.28774">
        <ele>71</ele>
        <time>2024-01-20T11:15:55Z</time>
      </trkpt>
      <trkpt lat="48.1927" lon="3.28774">
        <ele>71</ele>
        <time>2024-01-20T11:15:45Z</time>
      </trkpt>
      <trkpt lat="48.19286" lon="3.28779">
        <ele>71.3</ele>
        <time>2024-01-20T11:15:39Z</time>
      </trkpt>
      <trkpt lat="48.19306" lon="3.28783">
        <ele>71.8</ele>
        <time>2024-01-20T11:15:33Z</time>
      </trkpt>
      <trkpt lat="48.1932" lon="3.28787">
        <ele>71.7</ele>
        <time>2024-01-20T11:15:27Z</time>
      </trkpt>
      <trkpt lat="48.1934" lon="3.28789">
        <ele>71.7</ele>
        <time>2024-01-20T11:15:21Z</time>
      </trkpt>
      <trkpt lat="48.1936" lon="3.28787">
        <ele>72</ele>
        <time>2024-01-20T11:15:16Z</time>
      </trkpt>
      <trkpt lat="48.19365" lon="3.28786">
        <ele>72</ele>
        <time>2024-01-20T11:15:15Z</time>
      </trkpt>
      <trkpt lat="48.19386" lon="3.28787">
        <ele>72</ele>
        <time>2024-01-20T11:15:11Z</time>
      </trkpt>
      <trkpt lat="48.19444" lon="3.28784">
        <ele>72.8</ele>
        <time>2024-01-20T11:15:00Z</time>
      </trkpt>
      <trkpt lat="48.1948" lon="3.28777">
        <ele>73.3</ele>
        <time>2024-01-20T11:14:52Z</time>
      </trkpt>
      <trkpt lat="48.19484" lon="3.28777">
        <ele>73.4</ele>
        <time>2024-01-20T11:14:51Z</time>
      </trkpt>
      <trkpt lat="48.19486" lon="3.28777">
        <ele>73.5</ele>
        <time>2024-01-20T11:14:50Z</time>
      </trkpt>
      <trkpt lat="48.19488" lon="3.28775">
        <ele>73.6</ele>
        <time>2024-01-20T11:14:49Z</time>
      </trkpt>
      <trkpt lat="48.1949" lon="3.28773">
        <ele>73.6</ele>
        <time>2024-01-20T11:14:48Z</time>
      </trkpt>
      <trkpt lat="48.19492" lon="3.28772">
        <ele>73.7</ele>
        <time>2024-01-20T11:14:43Z</time>
      </trkpt>
      <trkpt lat="48.19497" lon="3.28771">
        <ele>73.9</ele>
        <time>2024-01-20T11:14:39Z</time>
      </trkpt>
      <trkpt lat="48.195" lon="3.2877">
        <ele>74</ele>
        <time>2024-01-20T11:14:38Z</time>
      </trkpt>
      <trkpt lat="48.19504" lon="3.28769">
        <ele>74</ele>
        <time>2024-01-20T11:14:37Z</time>
      </trkpt>
      <trkpt lat="48.19508" lon="3.28768">
        <ele>73.9</ele>
        <time>2024-01-20T11:14:36Z</time>
      </trkpt>
      <trkpt lat="48.19513" lon="3.28766">
        <ele>73.8</ele>
        <time>2024-01-20T11:14:35Z</time>
      </trkpt>
      <trkpt lat="48.19517" lon="3.28765">
        <ele>73.7</ele>
        <time>2024-01-20T11:14:34Z</time>
      </trkpt>
      <trkpt lat="48.19541" lon="3.28758">
        <ele>73.3</ele>
        <time>2024-01-20T11:14:28Z</time>
      </trkpt>
      <trkpt lat="48.1956" lon="3.28748">
        <ele>73</ele>
        <time>2024-01-20T11:14:23Z</time>
      </trkpt>
      <trkpt lat="48.19571" lon="3.28741">
        <ele>73</ele>
        <time>2024-01-20T11:14:18Z</time>
      </trkpt>
      <trkpt lat="48.19592" lon="3.28729">
        <ele>73</ele>
        <time>2024-01-20T11:14:11Z</time>
      </trkpt>
      <trkpt lat="48.1961" lon="3.28718">
        <ele>73.1</ele>
        <time>2024-01-20T11:14:06Z</time>
      </trkpt>
      <trkpt lat="48.19625" lon="3.28704">
        <ele>73.8</ele>
        <time>2024-01-20T11:14:02Z</time>
      </trkpt>
      <trkpt lat="48.19634" lon="3.28671">
        <ele>74</ele>
        <time>2024-01-20T11:13:56Z</time>
      </trkpt>
      <trkpt lat="48.19634" lon="3.28652">
        <ele>74</ele>
        <time>2024-01-20T11:13:53Z</time>
      </trkpt>
      <trkpt lat="48.19631" lon="3.28632">
        <ele>74</ele>
        <time>2024-01-20T11:13:50Z</time>
      </trkpt>
      <trkpt lat="48.19628" lon="3.28602">
        <ele>74</ele>
        <time>2024-01-20T11:13:45Z</time>
      </trkpt>
      <trkpt lat="48.19622" lon="3.28573">
        <ele>73.6</ele>
        <time>2024-01-20T11:13:39Z</time>
      </trkpt>
      <trkpt lat="48.19616" lon="3.2855">
        <ele>73</ele>
        <time>2024-01-20T11:13:32Z</time>
      </trkpt>
      <trkpt lat="48.19616" lon="3.2855">
        <ele>73</ele>
        <time>2024-01-20T11:13:31Z</time>
      </trkpt>
      <trkpt lat="48.19616" lon="3.2855">
        <ele>73</ele>
        <time>2024-01-20T11:13:17Z</time>
      </trkpt>
      <trkpt lat="48.19616" lon="3.2855">
        <ele>73</ele>
        <time>2024-01-20T11:13:03Z</time>
      </trkpt>
      <trkpt lat="48.19618" lon="3.28547">
        <ele>73</ele>
        <time>2024-01-20T11:12:57Z</time>
      </trkpt>
      <trkpt lat="48.19632" lon="3.28542">
        <ele>73</ele>
        <time>2024-01-20T11:12:53Z</time>
      </trkpt>
      <trkpt lat="48.19662" lon="3.28535">
        <ele>73.8</ele>
        <time>2024-01-20T11:12:46Z</time>
      </trkpt>
      <trkpt lat="48.19666" lon="3.28534">
        <ele>74</ele>
        <time>2024-01-20T11:12:45Z</time>
      </trkpt>
      <trkpt lat="48.19692" lon="3.28526">
        <ele>73.1</ele>
        <time>2024-01-20T11:12:39Z</time>
      </trkpt>
      <trkpt lat="48.19724" lon="3.28513">
        <ele>74</ele>
        <time>2024-01-20T11:12:32Z</time>
      </trkpt>
      <trkpt lat="48.19729" lon="3.28512">
        <ele>74</ele>
        <time>2024-01-20T11:12:31Z</time>
      </trkpt>
      <trkpt lat="48.19748" lon="3.28507">
        <ele>74</ele>
        <time>2024-01-20T11:12:27Z</time>
      </trkpt>
      <trkpt lat="48.19753" lon="3.28506">
        <ele>74</ele>
        <time>2024-01-20T11:12:26Z</time>
      </trkpt>
      <trkpt lat="48.19753" lon="3.28481">
        <ele>74</ele>
        <time>2024-01-20T11:12:19Z</time>
      </trkpt>
      <trkpt lat="48.19747" lon="3.2845">
        <ele>74</ele>
        <time>2024-01-20T11:12:12Z</time>
      </trkpt>
      <trkpt lat="48.19746" lon="3.28445">
        <ele>74</ele>
        <time>2024-01-20T11:12:11Z</time>
      </trkpt>
      <trkpt lat="48.19745" lon="3.28442">
        <ele>74</ele>
        <time>2024-01-20T11:12:10Z</time>
      </trkpt>
      <trkpt lat="48.19744" lon="3.28438">
        <ele>74</ele>
        <time>2024-01-20T11:12:09Z</time>
      </trkpt>
      <trkpt lat="48.19743" lon="3.28436">
        <ele>74</ele>
        <time>2024-01-20T11:12:08Z</time>
      </trkpt>
      <trkpt lat="48.19741" lon="3.28431">
        <ele>74</ele>
        <time>2024-01-20T11:12:01Z</time>
      </trkpt>
      <trkpt lat="48.19738" lon="3.28351">
        <ele>74</ele>
        <time>2024-01-20T11:11:34Z</time>
      </trkpt>
      <trkpt lat="48.19742" lon="3.28351">
        <ele>74</ele>
        <time>2024-01-20T11:11:33Z</time>
      </trkpt>
      <trkpt lat="48.19745" lon="3.28351">
        <ele>74</ele>
        <time>2024-01-20T11:11:32Z</time>
      </trkpt>
      <trkpt lat="48.19748" lon="3.28353">
        <ele>74</ele>
        <time>2024-01-20T11:11:31Z</time>
      </trkpt>
      <trkpt lat="48.1975" lon="3.28358">
        <ele>74</ele>
        <time>2024-01-20T11:11:30Z</time>
      </trkpt>
      <trkpt lat="48.19752" lon="3.28386">
        <ele>74</ele>
        <time>2024-01-20T11:11:28Z</time>
      </trkpt>
      <trkpt lat="48.19752" lon="3.28391">
        <ele>74</ele>
        <time>2024-01-20T11:11:26Z</time>
      </trkpt>
      <trkpt lat="48.19752" lon="3.28391">
        <ele>74</ele>
        <time>2024-01-20T11:11:03Z</time>
      </trkpt>
      <trkpt lat="48.19752" lon="3.2839">
        <ele>74</ele>
        <time>2024-01-20T11:10:22Z</time>
        <extensions>
          <visugpx:TrkExtension xmlns:visugpx="https://www.visugpx.com/editgpx/">
            <visugpx:node>1</visugpx:node>
            </visugpx:TrkExtension>
        </extensions>
      </trkpt>
    </trkseg>
  </trk>
</gpx>